Washington, District of Columbia
Current Conditions -  °F | °C
As of 4:52 PM on Friday 24 Oct 2014 (Local Time) from KDCA Reporting Station
Broken Clouds Broken Clouds  
Wind Chill: 70°   Ceiling: 25000
Heat Index: 70°   Visibility: 10mi
Dew Point: 35°   Wind: 9mph
Humidity: 28%   Direction: 320°NW
Pressure: 29.9"   Gusts: NA
Location:  38.89°N, 77.03°W
Report Text: KDCA 242052Z 32008KT 10SM BKN250 21/02 A2990 RMK AO2 SLP124 T02110017 56007
Loading
Personal Weather Stations






























Interactive Weather Map
Tropical Storm Tracking
New forecast layout! Learn more

10-Day Weather Forecast

Advertisements
Track Severe Weather on mobile